Time;durP1;ratioP1;P1;durP2;ratioP2;P2;SDS_P1;SDS_P2;PMS_P1;PMS_P2;Temp;Humidity;BMP_temperature;BMP_pressure;BME280_temperature;BME280_humidity;BME280_pressure;Samples;Min_cycle;Max_cycle;Signal;HPM_P1;HPM_P2
2022/09/20 00:00:14;;;;;;;2.83;1.30;;;;;;;12.44;33.76;92599.72;5046002;28;20040;-74
2022/09/20 00:02:39;;;;;;;3.45;1.30;;;;;;;12.54;33.58;92611.88;5029392;28;20045;-73
2022/09/20 00:05:07;;;;;;;2.13;1.20;;;;;;;12.47;33.63;92609.63;5029866;28;20467;-74
2022/09/20 00:07:33;;;;;;;2.95;1.20;;;;;;;12.47;34.02;92611.47;5045060;28;20041;-74
2022/09/20 00:09:58;;;;;;;2.08;1.20;;;;;;;12.44;33.97;92604.97;5030599;28;20052;-74
2022/09/20 00:12:25;;;;;;;3.13;1.38;;;;;;;12.45;34.18;92616.22;5029415;28;20033;-74
2022/09/20 00:14:51;;;;;;;4.97;1.38;;;;;;;12.41;34.06;92612.66;5052031;28;20154;-74
2022/09/20 00:17:16;;;;;;;2.65;1.25;;;;;;;12.37;34.56;92617.72;5001909;28;20489;-74
2022/09/20 00:19:42;;;;;;;3.70;1.35;;;;;;;12.38;34.21;92608.75;5052069;28;20048;-74
2022/09/20 00:22:07;;;;;;;2.47;1.27;;;;;;;12.37;34.50;92609.06;5051476;28;20135;-74
2022/09/20 00:24:35;;;;;;;2.63;1.23;;;;;;;12.33;34.57;92623.84;5051986;28;20045;-74
2022/09/20 00:27:01;;;;;;;4.07;1.23;;;;;;;12.36;35.01;92618.00;5052591;28;20033;-74
2022/09/20 00:29:27;;;;;;;2.67;1.30;;;;;;;12.28;35.02;92616.84;5051107;28;20063;-74
2022/09/20 00:31:52;;;;;;;2.85;1.20;;;;;;;12.23;35.08;92625.59;5050666;28;20041;-74
2022/09/20 00:37:02;;;;;;;2.95;1.40;;;;;;;12.23;34.94;92609.84;5051762;28;20045;-74
2022/09/20 00:39:28;;;;;;;4.05;1.45;;;;;;;12.20;34.99;92604.41;5053270;28;20028;-74
2022/09/20 00:41:54;;;;;;;3.97;1.45;;;;;;;12.17;35.22;92605.75;5052587;28;20353;-74
2022/09/20 00:44:41;;;;;;;2.35;1.30;;;;;;;12.16;34.96;92611.28;5052013;28;20097;-74
2022/09/20 00:47:20;;;;;;;7.32;1.50;;;;;;;12.12;35.12;92607.72;5031709;28;20322;-74
2022/09/20 00:49:45;;;;;;;2.63;1.15;;;;;;;12.16;34.98;92596.34;5042817;28;20447;-73
2022/09/20 00:52:11;;;;;;;2.33;1.30;;;;;;;12.11;35.29;92606.91;5051472;28;20029;-74
2022/09/20 00:54:37;;;;;;;2.83;1.30;;;;;;;12.09;35.30;92598.56;5020918;28;20053;-74
2022/09/20 00:57:03;;;;;;;2.67;1.40;;;;;;;12.08;35.28;92594.41;5051938;28;20037;-74
2022/09/20 00:59:33;;;;;;;4.82;1.55;;;;;;;12.13;34.88;92590.91;5052530;28;20029;-73
2022/09/20 01:02:08;;;;;;;2.53;1.30;;;;;;;12.18;34.87;92601.28;5052133;28;20033;-74
2022/09/20 01:04:37;;;;;;;2.50;1.25;;;;;;;12.17;35.25;92584.78;5051026;28;20037;-73
2022/09/20 01:07:05;;;;;;;3.20;1.40;;;;;;;12.15;35.25;92597.41;5050934;28;20035;-73
2022/09/20 01:09:31;;;;;;;3.15;1.40;;;;;;;12.19;35.47;92598.38;5052488;28;20213;-74
2022/09/20 01:12:00;;;;;;;3.10;1.42;;;;;;;12.19;35.26;92593.13;5033961;28;20106;-73
2022/09/20 01:14:26;;;;;;;2.08;1.17;;;;;;;12.16;35.81;92595.53;5049963;28;20040;-73
2022/09/20 01:17:01;;;;;;;2.58;1.40;;;;;;;12.15;35.35;92600.03;5051262;28;20091;-74
2022/09/20 01:19:58;;;;;;;3.15;1.13;;;;;;;12.27;34.94;92592.44;5051191;28;20066;-74
2022/09/20 01:22:27;;;;;;;2.97;1.23;;;;;;;12.17;35.25;92597.88;5048461;28;20063;-73
2022/09/20 01:25:11;;;;;;;2.85;1.33;;;;;;;12.13;35.32;92598.75;5064611;28;20032;-74
2022/09/20 01:27:44;;;;;;;2.95;1.40;;;;;;;12.12;35.57;92597.22;5066774;28;20483;-73
2022/09/20 01:30:15;;;;;;;3.88;1.40;;;;;;;12.06;35.63;92601.78;5050120;28;20040;-73
2022/09/20 01:33:03;;;;;;;2.60;1.20;;;;;;;12.00;35.81;92595.06;5050761;28;20049;-74
2022/09/20 01:35:33;;;;;;;4.70;1.30;;;;;;;11.98;35.92;92587.50;5051500;28;20025;-73
2022/09/20 01:38:26;;;;;;;2.40;1.40;;;;;;;11.94;35.95;92591.00;5033328;28;20053;-73
2022/09/20 01:41:04;;;;;;;3.45;1.60;;;;;;;11.88;36.33;92587.69;5050256;28;20124;-73
2022/09/20 01:43:39;;;;;;;3.08;1.25;;;;;;;11.88;35.82;92588.47;5049366;28;20074;-74
2022/09/20 01:46:31;;;;;;;4.70;1.38;;;;;;;11.83;36.28;92593.78;5051080;28;20028;-73
2022/09/20 01:49:31;;;;;;;4.07;1.40;;;;;;;11.80;36.09;92591.75;5035818;28;20446;-74
2022/09/20 01:52:13;;;;;;;3.13;1.48;;;;;;;11.77;36.49;92592.31;5050469;28;20066;-73
2022/09/20 01:55:14;;;;;;;2.88;1.40;;;;;;;11.71;36.36;92596.09;5048736;28;20388;-74
2022/09/20 01:58:09;;;;;;;2.90;1.23;;;;;;;11.67;36.62;92585.41;5044175;28;20430;-74
2022/09/20 02:00:46;;;;;;;2.15;1.25;;;;;;;11.64;36.45;92596.50;5048281;28;20123;-74
2022/09/20 02:03:30;;;;;;;3.60;1.30;;;;;;;11.61;36.26;92588.41;5049590;28;20123;-73
2022/09/20 02:06:13;;;;;;;2.65;1.40;;;;;;;11.58;37.19;92584.53;5049679;28;20040;-74
2022/09/20 02:08:45;;;;;;;;;;;;;;;11.52;37.75;92588.28;5052183;28;20025;-74
2022/09/20 02:11:40;;;;;;;3.00;1.27;;;;;;;11.45;37.98;92593.13;5050949;28;20263;-74
2022/09/20 02:14:24;;;;;;;2.60;1.25;;;;;;;11.43;37.35;92588.19;5032841;28;20047;-74
2022/09/20 02:16:55;;;;;;;3.45;1.40;;;;;;;11.34;39.08;92584.66;5066333;28;20462;-74
2022/09/20 02:19:40;;;;;;;3.13;1.60;;;;;;;11.28;39.33;92585.84;5048469;28;20044;-73
2022/09/20 02:22:25;;;;;;;2.35;1.23;;;;;;;11.16;40.33;92582.88;5049581;28;20489;-74
2022/09/20 02:25:03;;;;;;;3.05;1.38;;;;;;;11.01;41.53;92582.06;5050026;28;20029;-73
2022/09/20 02:27:41;;;;;;;3.10;1.30;;;;;;;10.89;42.14;92578.31;5050444;28;20142;-74
2022/09/20 02:30:15;;;;;;;3.70;1.45;;;;;;;10.79;42.04;92574.78;5049527;28;20033;-73
2022/09/20 02:32:44;;;;;;;5.90;1.30;;;;;;;10.70;42.92;92570.50;5049018;28;20041;-74
2022/09/20 02:35:34;;;;;;;5.13;1.42;;;;;;;10.57;42.16;92572.75;5049296;28;20024;-74
2022/09/20 02:38:11;;;;;;;2.90;1.20;;;;;;;10.49;43.03;92577.84;5049481;28;20037;-73
2022/09/20 02:41:03;;;;;;;4.13;1.40;;;;;;;10.38;44.16;92574.56;5048762;28;20036;-74
2022/09/20 02:43:47;;;;;;;3.65;1.60;;;;;;;10.31;43.60;92566.28;5048701;28;20110;-73
2022/09/20 02:46:51;;;;;;;2.90;1.38;;;;;;;10.26;43.56;92572.34;5056587;28;20227;-74
2022/09/20 02:49:47;;;;;;;2.80;1.33;;;;;;;10.26;43.25;92568.94;5048497;28;20084;-74
2022/09/20 02:52:56;;;;;;;3.00;1.40;;;;;;;10.19;44.14;92561.44;5012554;28;20041;-73
2022/09/20 02:55:57;;;;;;;4.22;1.48;;;;;;;10.16;44.38;92560.19;5048874;28;20076;-73
2022/09/20 02:58:31;;;;;;;3.63;1.38;;;;;;;10.10;44.77;92563.91;5045805;28;20045;-73
2022/09/20 03:01:06;;;;;;;4.88;1.50;;;;;;;10.04;44.34;92559.78;5048738;28;20037;-73
2022/09/20 03:03:50;;;;;;;2.10;1.30;;;;;;;10.00;44.73;92569.28;5049937;28;20430;-73
2022/09/20 03:06:47;;;;;;;4.32;1.50;;;;;;;9.91;45.16;92560.50;5064479;28;20048;-73
2022/09/20 03:09:47;;;;;;;3.53;1.30;;;;;;;9.79;45.92;92572.13;5048390;28;20032;-73
2022/09/20 03:12:32;;;;;;;3.00;1.38;;;;;;;9.72;45.49;92574.28;5064367;28;20037;-73
2022/09/20 03:15:03;;;;;;;3.80;1.33;;;;;;;9.68;45.78;92569.88;5048420;28;20037;-72
2022/09/20 03:18:09;;;;;;;2.58;1.35;;;;;;;9.62;46.55;92571.00;5049080;28;20402;-73
2022/09/20 03:21:10;;;;;;;4.28;1.40;;;;;;;9.56;46.16;92568.44;5048754;28;20131;-73
2022/09/20 03:23:56;;;;;;;2.58;1.30;;;;;;;9.52;45.86;92571.88;5049813;28;20051;-73
2022/09/20 03:26:39;;;;;;;2.17;1.30;;;;;;;9.45;46.80;92574.03;5048812;28;20116;-73
2022/09/20 03:29:20;;;;;;;2.53;1.35;;;;;;;9.40;46.89;92574.09;5049404;28;20491;-73
2022/09/20 03:31:58;;;;;;;3.70;1.40;;;;;;;9.35;46.67;92573.09;5050016;28;20438;-73
2022/09/20 03:34:23;;;;;;;2.80;1.38;;;;;;;9.33;47.18;92577.81;5048217;28;20522;-73
2022/09/20 03:37:27;;;;;;;2.75;1.40;;;;;;;9.25;47.64;92578.41;5030729;28;20141;-75
2022/09/20 03:40:04;;;;;;;1.98;1.20;;;;;;;9.22;47.53;92586.78;4978924;28;20057;-73
2022/09/20 03:42:30;;;;;;;2.65;1.33;;;;;;;9.19;47.87;92579.50;5029769;28;20150;-73
2022/09/20 03:45:45;;;;;;;3.95;1.33;;;;;;;9.23;47.06;92585.75;5029571;28;20037;-73
2022/09/20 03:48:19;;;;;;;2.70;1.27;;;;;;;9.21;47.64;92577.41;4977535;28;20034;-73
2022/09/20 03:50:56;;;;;;;2.65;1.40;;;;;;;9.16;47.92;92582.66;5031404;28;20304;-73
2022/09/20 03:53:54;;;;;;;1.75;1.20;;;;;;;9.09;47.53;92582.19;5031972;28;20038;-73
2022/09/20 03:56:38;;;;;;;2.72;1.30;;;;;;;9.03;47.77;92580.66;5040727;28;20044;-73
2022/09/20 03:59:11;;;;;;;3.42;1.30;;;;;;;9.01;48.03;92580.19;5053571;28;20060;-73
2022/09/20 04:01:48;;;;;;;3.35;1.20;;;;;;;8.97;48.26;92574.72;5050756;28;20044;-73
2022/09/20 04:04:48;;;;;;;2.35;1.20;;;;;;;8.93;48.38;92579.69;5052271;28;20040;-73
2022/09/20 04:07:23;;;;;;;2.60;1.40;;;;;;;8.98;48.17;92583.34;5052341;28;20036;-73
2022/09/20 04:10:01;;;;;;;2.85;1.35;;;;;;;8.93;47.29;92582.31;5061353;28;20521;-73
2022/09/20 04:12:57;;;;;;;2.83;1.33;;;;;;;8.91;47.46;92587.03;5055068;28;20033;-73
2022/09/20 04:15:29;;;;;;;4.72;1.83;;;;;;;8.90;47.66;92582.88;5071815;28;20147;-73
2022/09/20 04:18:09;;;;;;;2.45;1.20;;;;;;;8.92;47.87;92585.22;5060074;28;20061;-73
2022/09/20 04:20:49;;;;;;;5.05;1.40;;;;;;;8.91;47.53;92583.66;5052812;28;20171;-74
2022/09/20 04:23:30;;;;;;;4.10;1.30;;;;;;;8.88;47.96;92584.97;5052585;28;20199;-75
2022/09/20 04:26:00;;;;;;;2.20;1.30;;;;;;;8.88;47.72;92582.34;5050558;28;20033;-75
2022/09/20 04:28:46;;;;;;;2.90;1.40;;;;;;;8.83;49.36;92585.00;5052710;28;20037;-75
2022/09/20 04:31:26;;;;;;;3.53;1.40;;;;;;;8.79;51.20;92586.59;5052180;28;20061;-75
2022/09/20 04:33:56;;;;;;;2.83;1.38;;;;;;;8.78;50.51;92586.88;5057791;28;20041;-75
2022/09/20 04:36:55;;;;;;;2.13;1.30;;;;;;;8.75;50.48;92588.97;5049249;28;20029;-75
2022/09/20 04:39:48;;;;;;;3.90;1.70;;;;;;;8.67;50.88;92593.97;5044907;28;20044;-75
2022/09/20 04:42:45;;;;;;;4.78;1.50;;;;;;;8.59;51.18;92592.72;5047430;28;20036;-74
2022/09/20 04:45:51;;;;;;;3.50;1.50;;;;;;;8.54;51.18;92598.75;5052373;28;20041;-74
2022/09/20 04:48:36;;;;;;;2.60;1.30;;;;;;;8.54;51.22;92606.59;5049021;28;20051;-75
2022/09/20 04:51:29;;;;;;;5.43;1.50;;;;;;;8.54;50.80;92609.19;5065596;28;20080;-75
2022/09/20 04:54:24;;;;;;;5.15;1.55;;;;;;;8.52;51.30;92616.53;5046273;28;20049;-75
2022/09/20 04:57:17;;;;;;;2.22;1.25;;;;;;;8.48;52.12;92610.28;5050063;28;20053;-74
2022/09/20 05:00:06;;;;;;;4.78;1.38;;;;;;;8.48;52.24;92614.72;5058258;28;20560;-75
2022/09/20 05:03:09;;;;;;;3.85;1.63;;;;;;;8.45;52.50;92618.66;5049503;28;20024;-76
2022/09/20 05:06:14;;;;;;;3.35;1.50;;;;;;;8.41;51.49;92620.22;5031092;28;20090;-75
2022/09/20 05:09:17;;;;;;;3.05;1.52;;;;;;;8.38;51.66;92625.97;5046735;28;20029;-75
2022/09/20 05:12:01;;;;;;;2.35;1.30;;;;;;;8.38;51.61;92625.19;5044424;28;20029;-74
2022/09/20 05:15:08;;;;;;;3.83;1.42;;;;;;;8.32;52.30;92622.59;5052234;28;20029;-75
2022/09/20 05:17:54;;;;;;;4.20;1.40;;;;;;;8.31;52.43;92631.47;5048071;28;20029;-75
2022/09/20 05:20:42;;;;;;;5.65;2.17;;;;;;;8.29;53.23;92628.34;5048722;28;20033;-75
2022/09/20 05:23:19;;;;;;;5.28;2.08;;;;;;;8.30;52.78;92627.28;5054289;28;20059;-74
2022/09/20 05:26:02;;;;;;;4.85;1.80;;;;;;;8.31;52.40;92636.69;5050852;28;20433;-75
2022/09/20 05:28:43;;;;;;;3.72;1.45;;;;;;;8.40;52.27;92631.72;5046993;28;20029;-79
2022/09/20 05:31:16;;;;;;;3.40;1.52;;;;;;;8.48;51.96;92633.75;5049145;28;20112;-74
2022/09/20 05:34:06;;;;;;;4.53;1.48;;;;;;;8.63;51.43;92637.34;5046008;28;20112;-75
2022/09/20 05:36:42;;;;;;;5.43;2.38;;;;;;;8.73;51.39;92642.50;5051170;28;20048;-75
2022/09/20 05:39:30;;;;;;;2.50;1.40;;;;;;;9.33;49.85;92642.34;5043172;28;20230;-75
2022/09/20 05:42:04;;;;;;;4.75;1.60;;;;;;;10.40;47.70;92641.28;5050624;28;20044;-75
2022/09/20 05:45:26;;;;;;;3.05;1.40;;;;;;;11.40;45.06;92640.41;5051150;28;20059;-75
2022/09/20 05:48:10;;;;;;;4.05;1.60;;;;;;;12.44;42.47;92636.47;5009510;28;20073;-75
2022/09/20 05:51:02;;;;;;;4.03;1.40;;;;;;;13.28;41.20;92627.34;5009395;28;20113;-75
2022/09/20 05:53:41;;;;;;;3.10;1.42;;;;;;;14.14;39.33;92636.00;5041445;28;20517;-75
2022/09/20 05:56:33;;;;;;;4.13;1.38;;;;;;;14.82;38.57;92633.13;5048590;28;20044;-75
2022/09/20 05:59:18;;;;;;;4.13;1.27;;;;;;;15.23;37.84;92635.31;5050046;28;20037;-75
2022/09/20 06:02:21;;;;;;;3.80;1.20;;;;;;;16.05;36.25;92634.56;5049054;28;20552;-75
2022/09/20 06:04:55;;;;;;;5.30;1.60;;;;;;;16.78;35.02;92634.38;5050034;28;20539;-75
2022/09/20 06:07:24;;;;;;;3.33;1.40;;;;;;;16.96;33.88;92633.22;5050901;28;20033;-74
2022/09/20 06:10:31;;;;;;;4.75;1.38;;;;;;;17.50;33.06;92642.31;5049945;28;20509;-74
2022/09/20 06:13:08;;;;;;;3.60;1.38;;;;;;;18.10;32.86;92644.38;5053210;28;20449;-75
2022/09/20 06:15:58;;;;;;;3.72;1.40;;;;;;;18.61;32.58;92636.13;5049556;28;20434;-75
2022/09/20 06:18:55;;;;;;;2.67;1.30;;;;;;;19.05;31.69;92638.19;5050077;28;20040;-75
2022/09/20 06:21:45;;;;;;;3.58;1.40;;;;;;;19.48;30.70;92642.84;5049611;28;20041;-75
2022/09/20 06:24:40;;;;;;;3.85;1.70;;;;;;;19.86;30.97;92649.59;5051085;28;20119;-75
2022/09/20 06:27:13;;;;;;;6.28;1.50;;;;;;;20.05;30.90;92654.25;5049404;28;20610;-75
2022/09/20 06:29:44;;;;;;;6.85;1.70;;;;;;;20.85;29.20;92649.75;5051042;28;20039;-75
2022/09/20 06:32:14;;;;;;;6.25;1.90;;;;;;;21.82;28.13;92647.22;5067542;28;20037;-75
2022/09/20 06:34:40;;;;;;;5.90;1.70;;;;;;;21.64;28.33;92648.75;5049739;28;20032;-75
2022/09/20 06:43:13;;;;;;;7.43;1.70;;;;;;;22.69;26.26;92659.38;5029422;28;20038;-75
2022/09/20 06:45:40;;;;;;;5.30;1.52;;;;;;;23.10;25.85;92657.72;5030597;28;20052;-75
2022/09/20 06:48:07;;;;;;;2.08;1.30;;;;;;;23.82;26.69;92664.81;5032093;28;20570;-75
2022/09/20 06:50:35;;;;;;;3.03;1.60;;;;;;;23.96;24.82;92666.84;5049563;28;20576;-75
2022/09/20 06:53:01;;;;;;;3.35;1.50;;;;;;;23.03;26.45;92674.44;5065919;28;20036;-75
2022/09/20 06:55:31;;;;;;;4.65;1.60;;;;;;;22.88;26.52;92661.97;5050308;28;20049;-75
2022/09/20 06:57:57;;;;;;;3.38;1.30;;;;;;;22.50;26.96;92666.31;5050449;28;20033;-75
2022/09/20 07:00:23;;;;;;;3.58;1.60;;;;;;;23.12;26.20;92665.38;5049951;28;20037;-75
2022/09/20 07:02:48;;;;;;;3.97;1.50;;;;;;;23.88;26.71;92667.91;5050202;28;20037;-76
2022/09/20 07:05:16;;;;;;;3.30;1.50;;;;;;;23.95;24.64;92673.31;5065909;28;20044;-75
2022/09/20 07:07:42;;;;;;;4.95;1.70;;;;;;;24.00;24.89;92670.34;5050408;28;20033;-75
2022/09/20 07:10:10;;;;;;;3.85;1.58;;;;;;;24.27;26.01;92673.69;5048917;28;20045;-75
2022/09/20 07:12:36;;;;;;;2.50;1.35;;;;;;;24.26;24.73;92674.03;5049522;28;20044;-75
2022/09/20 07:15:01;;;;;;;4.50;1.40;;;;;;;22.29;26.89;92679.28;5050291;28;20040;-75
2022/09/20 07:17:27;;;;;;;2.50;1.27;;;;;;;22.33;27.59;92680.13;5048802;28;20576;-75
2022/09/20 07:19:52;;;;;;;3.25;1.60;;;;;;;22.07;27.78;92684.22;5050541;28;20048;-75
2022/09/20 07:22:18;;;;;;;4.68;1.75;;;;;;;20.81;28.55;92686.13;5048620;28;20418;-74
2022/09/20 07:24:44;;;;;;;3.75;1.55;;;;;;;19.67;31.74;92691.91;5050220;28;20082;-74
2022/09/20 07:27:10;;;;;;;2.60;1.40;;;;;;;20.37;30.90;92694.91;5048700;28;20032;-74
2022/09/20 07:29:36;;;;;;;2.72;1.40;;;;;;;19.91;31.00;92685.78;5048556;28;20037;-75
2022/09/20 07:32:02;;;;;;;5.90;1.40;;;;;;;18.98;32.30;92697.16;5032206;28;20422;-74
2022/09/20 07:34:28;;;;;;;4.47;1.60;;;;;;;19.41;34.36;92697.63;5065406;28;20033;-74
2022/09/20 07:36:56;;;;;;;4.20;1.60;;;;;;;19.40;33.11;92702.16;5048682;28;20587;-74
2022/09/20 07:39:21;;;;;;;4.93;1.33;;;;;;;19.20;33.02;92703.84;5047997;28;20044;-74
2022/09/20 07:41:49;;;;;;;6.18;1.60;;;;;;;18.04;36.27;92703.97;5046993;28;20041;-74
2022/09/20 07:44:23;;;;;;;7.10;1.90;;;;;;;17.33;37.87;92706.69;5028943;28;20128;-74
2022/09/20 07:46:53;;;;;;;5.63;1.50;;;;;;;17.18;38.38;92708.84;5045326;28;20044;-74
2022/09/20 07:49:20;;;;;;;5.82;1.70;;;;;;;17.22;39.48;92704.44;5029076;28;20034;-74
2022/09/20 07:51:47;;;;;;;3.50;1.60;;;;;;;17.22;38.64;92712.38;5028904;28;20036;-74
2022/09/20 07:54:13;;;;;;;12.98;2.38;;;;;;;16.95;39.21;92718.13;5044934;28;20040;-74
2022/09/20 07:56:39;;;;;;;2.88;1.45;;;;;;;16.75;40.32;92717.75;5048253;28;20041;-76
2022/09/20 07:59:05;;;;;;;2.97;1.50;;;;;;;17.03;40.82;92714.69;5049852;28;20056;-75
2022/09/20 08:01:30;;;;;;;3.45;1.60;;;;;;;16.63;40.82;92725.56;5048621;28;20047;-76
2022/09/20 08:03:56;;;;;;;4.43;1.80;;;;;;;16.21;40.35;92731.47;5046825;28;20033;-74
2022/09/20 08:06:22;;;;;;;3.65;1.70;;;;;;;16.10;41.71;92737.38;5049377;28;20463;-74
2022/09/20 08:08:48;;;;;;;11.73;2.42;;;;;;;15.78;40.86;92736.78;5048188;28;20044;-74
2022/09/20 08:11:20;;;;;;;3.70;1.55;;;;;;;15.66;41.16;92744.53;5048812;28;20048;-74
2022/09/20 08:13:51;;;;;;;4.07;1.73;;;;;;;15.58;40.55;92748.72;5047891;28;20021;-74
2022/09/20 08:16:17;;;;;;;3.25;1.40;;;;;;;15.78;40.31;92744.69;5049114;28;20090;-74
2022/09/20 08:18:54;;;;;;;3.25;1.50;;;;;;;15.73;39.54;92745.63;5048324;28;20021;-74
2022/09/20 08:21:20;;;;;;;3.95;1.40;;;;;;;15.66;40.04;92749.81;5049630;28;20116;-74
2022/09/20 08:23:49;;;;;;;3.13;1.40;;;;;;;15.37;40.36;92751.19;5047897;28;20553;-75
2022/09/20 08:26:17;;;;;;;3.22;1.48;;;;;;;15.41;41.31;92749.50;5049424;28;20020;-74
2022/09/20 08:28:44;;;;;;;2.97;1.02;;;;;;;15.54;40.37;92747.81;5048356;28;20108;-74
2022/09/20 08:31:18;;;;;;;2.08;1.17;;;;;;;15.33;40.49;92753.69;5048443;28;20456;-74
2022/09/20 08:33:45;;;;;;;2.53;1.30;;;;;;;15.36;39.43;92758.34;5052781;28;20045;-74
2022/09/20 08:36:13;;;;;;;2.72;1.10;;;;;;;15.59;37.25;92752.91;5051403;28;20033;-74
2022/09/20 08:38:39;;;;;;;4.47;1.40;;;;;;;16.28;38.67;92749.47;5052833;28;20033;-74
2022/09/20 08:41:11;;;;;;;3.90;1.20;;;;;;;16.18;34.14;92749.78;5052995;28;20051;-74
2022/09/20 08:43:45;;;;;;;4.32;1.60;;;;;;;16.53;37.97;92755.00;5034970;28;20033;-74
2022/09/20 08:46:16;;;;;;;4.88;1.52;;;;;;;16.57;35.79;92748.75;5034779;28;20482;-74
2022/09/20 08:48:42;;;;;;;3.35;1.48;;;;;;;16.40;37.45;92744.28;5051405;28;20457;-74
2022/09/20 08:51:11;;;;;;;4.03;1.50;;;;;;;16.67;36.81;92746.88;5035192;28;20158;-74
2022/09/20 08:53:44;;;;;;;4.40;1.25;;;;;;;16.74;37.13;92745.25;5051190;28;20048;-74
2022/09/20 08:56:10;;;;;;;4.38;1.40;;;;;;;17.13;37.32;92751.31;5051006;28;20029;-74
2022/09/20 08:58:37;;;;;;;3.65;1.30;;;;;;;16.97;37.14;92745.03;5052307;28;20029;-74
2022/09/20 09:01:04;;;;;;;4.57;1.50;;;;;;;17.15;38.46;92749.13;5051471;28;20041;-74
2022/09/20 09:03:31;;;;;;;0.77;0.77;;;;;;;16.90;37.24;92742.13;5067858;28;20128;-74
2022/09/20 09:05:57;;;;;;;4.03;1.20;;;;;;;16.89;37.64;92745.84;5052561;28;20104;-74
2022/09/20 09:08:29;;;;;;;2.63;1.27;;;;;;;17.06;38.50;92740.47;5050623;28;20041;-74
2022/09/20 09:10:58;;;;;;;4.18;1.48;;;;;;;17.51;37.89;92736.47;5052633;28;20057;-74
2022/09/20 09:14:03;;;;;;;2.63;1.08;;;;;;;17.92;36.45;92735.69;5052644;28;20067;-74
2022/09/20 09:16:32;;;;;;;5.05;1.40;;;;;;;17.95;36.45;92737.69;5052568;28;20036;-74
2022/09/20 09:19:28;;;;;;;3.60;1.23;;;;;;;17.78;37.21;92735.16;5051840;28;20044;-75
2022/09/20 09:22:02;;;;;;;8.48;1.42;;;;;;;18.33;38.02;92728.78;5067636;28;20561;-75
2022/09/20 09:24:30;;;;;;;3.53;1.15;;;;;;;18.22;36.63;92730.28;5051098;28;20128;-75
2022/09/20 09:27:17;;;;;;;2.75;1.20;;;;;;;18.49;37.95;92724.38;5051884;28;20028;-75
2022/09/20 09:29:52;;;;;;;5.35;1.10;;;;;;;18.37;37.43;92734.94;5054701;28;20077;-75
2022/09/20 09:32:24;;;;;;;4.13;1.25;;;;;;;18.02;37.04;92724.69;5047386;28;20089;-74
2022/09/20 09:34:50;;;;;;;5.15;1.23;;;;;;;17.43;38.22;92725.63;5047252;28;20124;-75
2022/09/20 09:37:29;;;;;;;2.83;1.30;;;;;;;17.28;39.62;92720.91;5030888;28;20190;-75
2022/09/20 09:40:15;;;;;;;2.05;1.10;;;;;;;16.96;41.80;92725.75;5039303;28;20029;-75
2022/09/20 09:42:49;;;;;;;2.50;1.15;;;;;;;17.03;39.88;92722.59;5049872;28;20041;-75
2022/09/20 09:45:37;;;;;;;4.30;1.27;;;;;;;17.09;40.18;92718.69;5050030;28;20037;-75
2022/09/20 09:48:27;;;;;;;4.82;1.40;;;;;;;17.25;41.34;92719.69;5051821;28;20048;-75
2022/09/20 09:51:14;;;;;;;7.13;1.33;;;;;;;17.46;39.44;92718.91;5049826;28;20055;-75
2022/09/20 09:53:42;;;;;;;3.03;1.25;;;;;;;17.85;40.34;92714.25;5049579;28;20123;-75
2022/09/20 09:56:25;;;;;;;2.13;1.08;;;;;;;18.01;39.49;92707.28;5050243;28;20560;-75
2022/09/20 09:59:12;;;;;;;3.30;1.30;;;;;;;18.44;39.06;92705.25;5050010;28;20513;-74
2022/09/20 10:02:08;;;;;;;4.10;1.50;;;;;;;18.73;38.02;92706.94;5049325;28;20415;-75
2022/09/20 10:04:39;;;;;;;2.83;1.20;;;;;;;18.44;37.59;92706.03;5048387;28;20513;-75
2022/09/20 10:07:15;;;;;;;2.72;1.15;;;;;;;18.45;37.75;92709.47;5050281;28;20380;-75
2022/09/20 10:09:43;;;;;;;4.53;1.05;;;;;;;18.90;37.03;92704.09;5051167;28;20033;-76
2022/09/20 10:12:13;;;;;;;2.42;1.20;;;;;;;18.94;37.72;92709.53;5050048;28;20029;-74
2022/09/20 10:14:52;;;;;;;3.10;1.45;;;;;;;18.97;35.08;92702.78;5062730;28;20039;-76
2022/09/20 10:17:52;;;;;;;3.33;1.38;;;;;;;18.61;36.31;92698.97;5046315;28;20041;-76
2022/09/20 10:20:33;;;;;;;4.35;1.55;;;;;;;18.80;37.05;92696.59;5030632;28;20068;-77
2022/09/20 10:23:02;;;;;;;2.53;1.20;;;;;;;19.03;36.58;92698.81;5047549;28;20036;-78
2022/09/20 10:25:42;;;;;;;4.03;1.48;;;;;;;19.08;36.83;92695.91;5051606;28;20036;-77
2022/09/20 10:28:49;;;;;;;3.78;1.50;;;;;;;19.33;33.94;92701.94;5051305;28;20040;-77
2022/09/20 10:31:56;;;;;;;2.22;1.20;;;;;;;19.22;35.69;92690.25;5049581;28;20037;-77
2022/09/20 10:34:34;;;;;;;4.22;1.42;;;;;;;19.00;37.04;92691.50;5054430;28;20401;-77
2022/09/20 10:37:00;;;;;;;5.18;1.40;;;;;;;19.01;36.86;92685.84;5069354;28;20037;-76
2022/09/20 10:39:32;;;;;;;2.50;1.30;;;;;;;19.27;36.14;92688.16;5033014;28;20067;-76
2022/09/20 10:45:54;;;;;;;3.65;1.30;;;;;;;18.56;37.68;92675.34;4991261;28;20068;-77
2022/09/20 10:48:47;;;;;;;3.72;1.27;;;;;;;18.26;37.57;92675.50;5049170;28;20020;-77
2022/09/20 10:51:29;;;;;;;2.15;1.15;;;;;;;18.19;39.55;92680.59;5046814;28;20056;-77
2022/09/20 10:54:24;;;;;;;6.45;1.50;;;;;;;18.34;38.86;92674.66;5047706;28;20060;-76
2022/09/20 10:56:59;;;;;;;3.22;1.38;;;;;;;18.34;38.01;92671.25;5031642;28;20072;-77
2022/09/20 10:59:54;;;;;;;5.10;1.30;;;;;;;18.02;37.78;92663.78;5045136;28;20048;-76
2022/09/20 11:02:37;;;;;;;3.60;1.42;;;;;;;17.97;36.96;92671.16;5019575;28;20037;-77
2022/09/20 11:05:24;;;;;;;3.75;1.33;;;;;;;18.04;37.65;92682.00;5047628;28;20067;-76
2022/09/20 11:08:07;;;;;;;4.57;1.40;;;;;;;18.09;37.32;92674.59;5048654;28;20441;-77
2022/09/20 11:10:38;;;;;;;6.65;1.50;;;;;;;17.97;36.92;92679.09;5065624;28;20051;-77
2022/09/20 11:13:33;;;;;;;2.55;1.20;;;;;;;18.13;37.41;92668.66;5058335;28;20028;-76
2022/09/20 11:16:21;;;;;;;2.53;1.30;;;;;;;18.16;37.66;92673.31;5044104;28;20107;-77
2022/09/20 11:18:52;;;;;;;3.15;1.38;;;;;;;18.14;37.44;92672.84;5032720;28;20048;-77
2022/09/20 11:21:45;;;;;;;2.50;1.23;;;;;;;18.09;37.69;92682.56;5043779;28;20280;-76
2022/09/20 11:24:32;;;;;;;3.13;1.50;;;;;;;18.20;37.85;92674.19;5047895;28;20033;-76
2022/09/20 11:27:11;;;;;;;3.97;1.38;;;;;;;18.13;37.29;92671.31;5032347;28;20065;-76
2022/09/20 11:29:41;;;;;;;7.82;1.50;;;;;;;18.26;39.05;92668.38;5031367;28;20035;-76
2022/09/20 11:32:28;;;;;;;3.38;1.45;;;;;;;18.07;38.19;92668.84;5048682;28;20056;-76
2022/09/20 11:34:58;;;;;;;2.63;1.27;;;;;;;17.98;37.36;92654.94;5046741;28;20051;-76
2022/09/20 11:37:29;;;;;;;3.75;1.20;;;;;;;17.98;37.79;92654.16;5045371;28;20033;-76
2022/09/20 11:39:55;;;;;;;4.87;1.40;;;;;;;18.04;39.32;92656.28;5049425;28;20116;-76
2022/09/20 11:42:35;;;;;;;5.72;1.42;;;;;;;18.07;39.80;92650.31;5050416;28;20128;-79
2022/09/20 11:45:02;;;;;;;6.53;1.40;;;;;;;18.09;38.54;92650.78;5065766;28;20028;-76
2022/09/20 11:47:50;;;;;;;2.38;1.30;;;;;;;17.99;39.24;92653.84;5047519;28;20124;-76
2022/09/20 11:50:31;;;;;;;6.63;1.73;;;;;;;18.04;37.24;92650.22;5049696;28;20032;-76
2022/09/20 11:53:00;;;;;;;3.73;1.60;;;;;;;18.22;38.24;92650.81;5065294;28;20061;-76
2022/09/20 11:56:00;;;;;;;6.60;1.50;;;;;;;18.22;38.45;92651.56;5049506;28;20294;-76
2022/09/20 11:58:26;;;;;;;5.72;1.52;;;;;;;18.74;38.23;92639.56;5046944;28;20033;-76
2022/09/20 12:00:55;;;;;;;3.40;1.55;;;;;;;18.56;36.67;92636.34;5047747;28;20049;-77
2022/09/20 12:03:36;;;;;;;3.17;1.60;;;;;;;18.64;38.08;92634.69;5050029;28;20084;-76
2022/09/20 12:06:26;;;;;;;2.83;1.40;;;;;;;18.38;38.48;92632.38;5040763;28;20551;-76
2022/09/20 12:08:52;;;;;;;3.80;1.85;;;;;;;18.10;35.95;92636.44;5051217;28;20163;-75
2022/09/20 12:11:37;;;;;;;6.10;1.60;;;;;;;18.61;38.04;92627.41;5053030;28;20108;-78
2022/09/20 12:14:21;;;;;;;3.70;1.48;;;;;;;18.36;39.22;92630.06;5051607;28;20044;-76
2022/09/20 12:16:48;;;;;;;4.07;1.60;;;;;;;18.54;39.20;92613.94;5041499;28;20553;-76
2022/09/20 12:19:35;;;;;;;4.93;1.80;;;;;;;17.86;38.11;92617.84;5050257;28;20035;-76
2022/09/20 12:22:01;;;;;;;5.25;1.70;;;;;;;17.85;39.23;92613.63;5050772;28;20365;-77
2022/09/20 12:24:28;;;;;;;6.57;1.60;;;;;;;17.83;38.85;92607.88;5053837;28;20123;-77
2022/09/20 12:26:56;;;;;;;4.30;1.50;;;;;;;17.98;39.38;92615.22;5051095;28;20032;-76
2022/09/20 12:29:22;;;;;;;4.30;1.60;;;;;;;18.16;39.20;92610.50;5050567;28;20061;-77
2022/09/20 12:31:53;;;;;;;5.88;1.60;;;;;;;18.02;38.59;92610.03;5050139;28;20079;-76
2022/09/20 12:34:18;;;;;;;5.90;1.73;;;;;;;17.94;40.47;92603.72;5042720;28;20095;-76
2022/09/20 12:37:09;;;;;;;3.90;1.50;;;;;;;18.06;40.34;92603.75;5049094;28;20459;-76